This is the latest recevied weather packets stored in our database for station/object SP1BMW-13. If no packets are shown the sender has not sent any weather packets the latest 10 day(s).
| Time | Temp. | Humidity | Pressure | Rain* | Wind** | Luminosity | Snow |
|---|---|---|---|---|---|---|---|
| 1787930059 | 23.89° C | 57% | 1008.9 hPa | 0 mm | 2.24 m/s, 25° | 74 W/m² | - |
| 1787929998 | 23.89° C | 57% | 1009.1 hPa | 0 mm | 0.45 m/s, 324° | 69 W/m² | - |
| 1787929938 | 23.89° C | 57% | 1009 hPa | 0 mm | 0.45 m/s, 233° | 67 W/m² | - |
| 1787929878 | 23.89° C | 57% | 1008.8 hPa | 0 mm | 1.34 m/s, 3° | 63 W/m² | - |
| 1787929818 | 23.89° C | 57% | 1008.7 hPa | 0 mm | 0.89 m/s, 352° | 59 W/m² | - |
| 1787929758 | 23.89° C | 57% | 1008.8 hPa | 0 mm | 0.89 m/s, 7° | 56 W/m² | - |
| 1787929698 | 23.89° C | 57% | 1008.9 hPa | 0 mm | 0.89 m/s, 101° | 54 W/m² | - |
| 1787929638 | 23.89° C | 57% | 1008.8 hPa | 0 mm | 1.79 m/s, 33° | 52 W/m² | - |
| 1787929578 | 24.44° C | 57% | 1008.7 hPa | 0 mm | 1.34 m/s, 28° | 52 W/m² | - |
| 1787929518 | 24.44° C | 57% | 1008.5 hPa | 0 mm | 0.89 m/s, 41° | 54 W/m² | - |
| 1787929458 | 24.44° C | 57% | 1008.6 hPa | 0 mm | 0.45 m/s, 67° | 56 W/m² | - |
| 1787929398 | 24.44° C | 56% | 1008.7 hPa | 0 mm | 1.34 m/s, 43° | 61 W/m² | - |
| 1787929338 | 24.44° C | 56% | 1008.8 hPa | 0 mm | 1.79 m/s, 40° | 65 W/m² | - |
| 1787929278 | 24.44° C | 56% | 1008.7 hPa | 0 mm | 1.34 m/s, 44° | 70 W/m² | - |
| 1787929218 | 24.44° C | 56% | 1008.9 hPa | 0 mm | 1.34 m/s, 130° | 76 W/m² | - |
| 1787929158 | 24.44° C | 56% | 1008.7 hPa | 0 mm | 1.34 m/s, 69° | 87 W/m² | - |
| 1787929098 | 24.44° C | 56% | 1008.7 hPa | 0 mm | 1.34 m/s, 36° | 100 W/m² | - |
| 1787929041 | 24.44° C | 56% | 1008.9 hPa | 0 mm | 0.45 m/s, 296° | 111 W/m² | - |
| 1787928978 | 24.44° C | 56% | 1008.8 hPa | 0 mm | 0.89 m/s, 66° | 116 W/m² | - |
| 1787928918 | 24.44° C | 56% | 1008.9 hPa | 0 mm | 0.89 m/s, 51° | 131 W/m² | - |
| 1787928858 | 24.44° C | 55% | 1008.9 hPa | 0 mm | 1.34 m/s, 132° | 142 W/m² | - |
| 1787928798 | 24.44° C | 56% | 1008.9 hPa | 0 mm | 0.45 m/s, 61° | 153 W/m² | - |
| 1787928738 | 24.44° C | 56% | 1008.9 hPa | 0 mm | 0.45 m/s, 77° | 160 W/m² | - |
| 1787928678 | 24.44° C | 56% | 1009 hPa | 0 mm | 0.45 m/s, 53° | 171 W/m² | - |
| 1787928618 | 25° C | 55% | 1008.9 hPa | 0 mm | 1.34 m/s, 28° | 177 W/m² | - |
* Rain latest hour (hover to see other rain measurements)
** Current wind speed in m/s (hover to see current wind gust speed)